Ir al Módulo  



logo_vatsim
logo_vatsur

 


NUEVO SECTOR FILE COLOMBIA
Octubre 16 de 2014

Los invitamos a descargar el nuevo SectorFile de Colombia!




Nuevo Escenario de Bogotá Recomendado
Septiembre 26 de 2014

Los invitamos a conocer el escenario desarrollado por LR30 Scenery Design de SKBO. Vatsim Colombia lo reconoce como escenario oficial de la red.

Links:

FS9: http://www.mediafire.com/download/gfuqcb7qb8r9q9n/BOG_2014_FS9.rar
FSX: http://www.mediafire.com/download/b8831kleqc5nc13/LR30_SKBO_V2.rar




 

 
Untitled Document
SKAR 040100Z 00000KT 9999 BKN022 SCT100 21/19 A3006
SKBG 040100Z VRB02KT 9999 SCT010 BKN070 23/22 A2996
SKBO 040100Z 35003KT 9999 SCT018 SCT200 14/11 A3030
SKBQ 040100Z 02010KT 9999 SCT015 SCT200 28/25 A2978
SKCG 040100Z 02007KT 9999 FEW015 28/25 A2978
SKCL 040100Z 34008KT 9999 FEW020 SCT100 22/18 A2998
SKPE 040100Z 05003KT 8000 MIFG SCT010 SCT070 18/17 A3008 RMK MIFG/W/NW
SKRG 040100Z 00000KT 9999 FEW015CB BKN200 17/16 A3026 RMK CB/NE/E